Bussey, IA

9:33 AM CST on January 31, 2015 (GMT -0600)
IADOT Pella (IA 163) | Change Station
CLOSE
Current Station
Personal Weather Station
Location: Pella, IA
Elevation: 889 ft
Nearby Weather Stations
Active Advisory: Winter Storm Warning

Elev 889 ft 41.39 °N, 92.87 °W | Updated 32 minutes ago

Overcast
Overcast
36 °F
Feels Like 30 °F
N
7
Wind Variable Wind from SW
Gusts 9.0 mph

Today
High -- | Low -- °F
--% Chance of Precip.
Yesterday
High -- | Low -- °F
Precip. -- in
7:23 AM 5:26 PM
Waxing Gibbous, 90% visible
Pressure 30.19 in
Visibility 10.0 miles
Clouds Few 3000 ft
Scattered Clouds 3900 ft
Overcast 4600 ft
Windchill 30 °F
Dew Point 29 °F
Humidity 75%
Rainfall -999.00 in
Snow Depth Not available.
UV 0 out of 12
Pollen .10 out of 12
Air Quality Not available.
Flu Activity Not available.
METAR KOXV 311515Z AUTO 23011KT 10SM FEW030 SCT039 OVC046 03/M01 A3019 RMK AO2

More Conditions Fewer Conditions

Pressure 30.19 in
Visibility 10.0 miles
Clouds Few 3000 ft
Scattered Clouds 3900 ft
Overcast 4600 ft
Windchill 30 °F
Dew Point 29 °F
Humidity 75%
Rainfall -999.00 in
Snow Depth Not available.
UV 0 out of 12
Pollen .10 out of 12
Air Quality Not available.
Flu Activity Not available.
METAR KOXV 311515Z AUTO 23011KT 10SM FEW030 SCT039 OVC046 03/M01 A3019 RMK AO2

More Conditions Fewer Conditions

10-Day Weather Forecast

Almanac

Astronomy

Jan. 31, 2015 Rise Set
Actual Time
Civil Twilight
Nautical Twilight
Astronomical Twilight
Moon
Length of Visible Light
Length of Day
Tomorrow will be .
, % of the Moon is Illuminated

Today's Extremes

State Highs State Lows

Community

WunderPhotos

Upload Photos

1,792,094 photos uploaded!

WunderBlogs® & News

Nearby

Air Quality

  Air Quality AQ Index Pollutant
Not available.

Snow Depth

Station Depth Elevation

Earthquake Activity

City Distance Mag. Time & Date
Minimum magnitude displayed is 2.5.

Coastal Water Temperatures

Place Temperature

Nearby Weather Stations